KHYA/HYA METAR and TAF weather

Enter ICAO airport designator
Station Type Date Time Source
KHYA METAR 2020/10/29 16:56 UTC NOAA

KHYA 291656Z 00000KT 4SM RA BR BKN055 OVC075 09/08 A2983 RMK AO2 SLP104 P0007 T00890078


Station Type Date Time Source
KHYA Decoded METAR 2020/10/29 16:56 UTC NOAA

HYANNIS BARNSTABLE BOARDMN, MA, United States (KHYA) 41-40N 070-16W 22M
Oct 29, 2020 - 12:56 PM EDT / 2020.10.29 1656 UTC
Wind: Calm:0
Visibility: 4 mile(s):0
Sky conditions: overcast
Weather: rain; mist
Precipitation last hour: 0.07 inches
Temperature: 48.0 F (8.9 C)
Dew Point: 46.0 F (7.8 C)
Relative Humidity: 92%
Pressure (altimeter): 29.83 in. Hg (1010 hPa)
ob: KHYA 291656Z 00000KT 4SM RA BR BKN055 OVC075 09/08 A2983 RMK AO2 SLP104 P0007 T00890078
cycle: 17

Station Type Date Time Source
KHYA TAF 2020/10/29 18:34 UTC NOAA

TAF KHYA 291731Z 2918/3018 VRB03KT 3SM -RA BR SCT008 OVC050
FM292000 06007KT 2SM -RA BR OVC008
FM292300 05012G19KT 2SM -RA BR OVC008
FM300300 04020G34KT 2SM -RA BR OVC010
FM300800 04022G35KT 5SM -RA BR OVC010
FM301500 03024G35KT 1/2SM -RA FG OVC008
FM301600 02024G33KT 1 1/2SM -RA BR OVC008

Example: see airport list